createdAt,value
2018-05-06T00:00:11.508Z,102144.04
2018-05-06T00:01:15.786Z,102141.87
2018-05-06T00:02:20.774Z,102141.02
2018-05-06T00:03:24.933Z,102138.91
2018-05-06T00:04:29.124Z,102139.78
2018-05-06T00:05:34.070Z,102138.38
2018-05-06T00:06:38.279Z,102142.70
2018-05-06T00:07:42.760Z,102137.88
2018-05-06T00:08:46.891Z,102137.06
2018-05-06T00:09:51.818Z,102141.87
2018-05-06T00:10:56.760Z,102142.27
2018-05-06T00:12:01.689Z,102138.81
2018-05-06T00:13:06.302Z,102143.07
2018-05-06T00:14:11.237Z,102140.95
2018-05-06T00:15:16.198Z,102142.37
2018-05-06T00:16:23.504Z,102142.91
2018-05-06T00:17:28.064Z,102138.17
2018-05-06T00:18:33.029Z,102142.06
2018-05-06T00:19:37.204Z,102146.70
2018-05-06T00:20:42.206Z,102144.54
2018-05-06T00:21:46.385Z,102142.89
2018-05-06T00:22:50.544Z,102140.35
2018-05-06T00:23:55.490Z,102142.11
2018-05-06T00:24:59.656Z,102143.38
2018-05-06T00:26:03.910Z,102138.23
2018-05-06T00:27:08.068Z,102140.38
2018-05-06T00:28:12.271Z,102146.48
2018-05-06T00:29:16.444Z,102140.52
2018-05-06T00:30:20.622Z,102146.93
2018-05-06T00:31:25.580Z,102149.03
2018-05-06T00:32:29.878Z,102146.02
2018-05-06T00:33:35.005Z,102146.06
2018-05-06T00:34:39.929Z,102142.68
2018-05-06T00:35:44.873Z,102139.20
2018-05-06T00:36:50.029Z,102141.48
2018-05-06T00:37:54.346Z,102141.14
2018-05-06T00:38:58.550Z,102141.13
2018-05-06T00:40:02.799Z,102140.70
2018-05-06T00:41:06.989Z,102139.38
2018-05-06T00:42:11.166Z,102139.73
2018-05-06T00:43:15.345Z,102141.47
2018-05-06T00:44:23.072Z,102138.94
2018-05-06T00:45:27.752Z,102143.31
2018-05-06T00:46:31.926Z,102141.63
2018-05-06T00:47:37.552Z,102142.57
2018-05-06T00:48:41.717Z,102142.98
2018-05-06T00:49:45.885Z,102144.22
2018-05-06T00:50:50.114Z,102146.38
2018-05-06T00:51:54.297Z,102146.46
2018-05-06T00:52:58.598Z,102143.88
2018-05-06T00:55:43.432Z,102144.89
2018-05-06T00:56:47.649Z,102141.90
2018-05-06T00:57:53.334Z,102145.80
2018-05-06T00:58:57.501Z,102142.88
2018-05-06T01:00:03.185Z,102143.70
2018-05-06T01:01:07.414Z,102143.34
2018-05-06T01:02:11.640Z,102143.00
2018-05-06T01:03:19.637Z,102147.35
2018-05-06T01:04:23.801Z,102152.10
2018-05-06T01:05:28.737Z,102149.53
2018-05-06T01:06:33.664Z,102149.56
2018-05-06T01:07:37.869Z,102149.59
2018-05-06T01:08:42.821Z,102150.16
2018-05-06T01:09:47.288Z,102149.80
2018-05-06T01:10:51.451Z,102149.49
2018-05-06T01:11:55.625Z,102148.33
2018-05-06T01:13:00.556Z,102147.87
2018-05-06T01:14:05.501Z,102148.78
2018-05-06T01:15:09.693Z,102144.49
2018-05-06T01:16:14.633Z,102141.19
2018-05-06T01:17:19.577Z,102139.95
2018-05-06T01:18:23.824Z,102145.93
2018-05-06T01:19:27.955Z,102141.13
2018-05-06T01:20:32.284Z,102140.66
2018-05-06T01:21:37.231Z,102148.42
2018-05-06T01:22:41.408Z,102147.16
2018-05-06T01:23:45.577Z,102149.72
2018-05-06T01:24:49.910Z,102148.36
2018-05-06T01:25:54.425Z,102151.75
2018-05-06T01:26:58.589Z,102147.50
2018-05-06T01:28:02.760Z,102147.91
2018-05-06T01:29:06.932Z,102153.13
2018-05-06T01:30:11.124Z,102152.28
2018-05-06T01:31:15.320Z,102152.67
2018-05-06T01:32:20.393Z,102150.55
2018-05-06T01:33:24.553Z,102151.37
2018-05-06T01:34:29.490Z,102152.30
2018-05-06T01:35:33.669Z,102151.00
2018-05-06T01:36:39.368Z,102146.27
2018-05-06T01:37:43.570Z,102144.96
2018-05-06T01:38:47.775Z,102137.27
2018-05-06T01:39:51.950Z,102140.28
2018-05-06T01:40:56.121Z,102136.86
2018-05-06T01:42:00.285Z,102142.86
2018-05-06T01:43:05.269Z,102137.70
2018-05-06T01:44:09.438Z,102135.95
2018-05-06T01:45:14.370Z,102134.30
2018-05-06T01:46:18.537Z,102139.45
2018-05-06T01:47:22.701Z,102129.16
2018-05-06T01:48:26.893Z,102132.99
2018-05-06T01:49:31.924Z,102129.13
2018-05-06T01:50:36.045Z,102130.08
2018-05-06T01:51:40.208Z,102132.17
2018-05-06T01:52:44.383Z,102132.95
2018-05-06T01:53:49.056Z,102127.42
2018-05-06T01:54:53.997Z,102131.72
2018-05-06T01:55:58.953Z,102126.12
2018-05-06T01:57:03.116Z,102128.31
2018-05-06T01:58:08.056Z,102130.03
2018-05-06T01:59:13.489Z,102127.02
2018-05-06T02:00:18.425Z,102126.20
2018-05-06T02:01:23.357Z,102118.08
2018-05-06T02:02:28.362Z,102124.10
2018-05-06T02:03:32.533Z,102123.22
2018-05-06T02:04:36.745Z,102117.25
2018-05-06T02:05:40.915Z,102118.98
2018-05-06T02:06:45.854Z,102119.02
2018-05-06T02:07:50.013Z,102118.64
2018-05-06T02:08:54.233Z,102120.02
2018-05-06T02:09:58.876Z,102117.87
2018-05-06T02:11:03.814Z,102117.45
2018-05-06T02:12:08.746Z,102114.45
2018-05-06T02:13:13.681Z,102113.62
2018-05-06T02:14:17.844Z,102121.72
2018-05-06T02:15:22.083Z,102119.22
2018-05-06T02:16:27.012Z,102112.77
2018-05-06T02:17:31.938Z,102113.66
2018-05-06T02:18:36.864Z,102114.06
2018-05-06T02:19:41.824Z,102108.48
2018-05-06T02:20:46.005Z,102109.80
2018-05-06T02:21:50.968Z,102111.52
2018-05-06T02:22:55.128Z,102109.84
2018-05-06T02:23:59.298Z,102110.27
2018-05-06T02:25:03.468Z,102113.72
2018-05-06T02:26:08.396Z,102115.88
2018-05-06T02:27:13.350Z,102116.28
2018-05-06T02:28:17.521Z,102118.02
2018-05-06T02:29:22.485Z,102117.63
2018-05-06T02:30:26.653Z,102121.08
2018-05-06T02:31:30.853Z,102122.43
2018-05-06T02:32:35.030Z,102120.70
2018-05-06T02:33:39.207Z,102121.52
2018-05-06T02:34:44.205Z,102124.06
2018-05-06T02:35:48.374Z,102118.50
2018-05-06T02:36:52.546Z,102114.25
2018-05-06T02:37:57.491Z,102117.22
2018-05-06T02:39:01.698Z,102109.12
2018-05-06T02:40:06.790Z,102113.01
2018-05-06T02:41:11.025Z,102108.69
2018-05-06T02:42:15.970Z,102107.02
2018-05-06T02:43:20.138Z,102107.03
2018-05-06T02:44:24.296Z,102100.61
2018-05-06T02:45:28.483Z,102105.73
2018-05-06T02:46:33.412Z,102103.61
2018-05-06T02:47:38.341Z,102101.49
2018-05-06T02:48:43.678Z,102095.11
2018-05-06T02:49:48.613Z,102096.83
2018-05-06T02:50:53.538Z,102096.48
2018-05-06T02:51:58.475Z,102094.31
2018-05-06T02:53:02.679Z,102094.30
2018-05-06T02:54:07.630Z,102099.06
2018-05-06T02:55:11.806Z,102090.45
2018-05-06T02:56:16.729Z,102099.05
2018-05-06T02:57:21.666Z,102090.96
2018-05-06T02:58:25.833Z,102096.95
2018-05-06T02:59:30.010Z,102091.78
2018-05-06T03:00:34.189Z,102089.26
2018-05-06T03:01:39.136Z,102087.96
2018-05-06T03:02:43.321Z,102087.13
2018-05-06T03:03:47.529Z,102089.31
2018-05-06T03:04:51.741Z,102088.44
2018-05-06T03:05:55.978Z,102085.50
2018-05-06T03:07:00.137Z,102084.64
2018-05-06T03:08:04.314Z,102083.36
2018-05-06T03:09:08.477Z,102086.77
2018-05-06T03:10:12.700Z,102082.06
2018-05-06T03:11:17.628Z,102083.83
2018-05-06T03:12:22.562Z,102078.30
2018-05-06T03:13:27.508Z,102076.22
2018-05-06T03:14:31.673Z,102078.78
2018-05-06T03:15:36.308Z,102084.75
2018-05-06T03:16:41.524Z,102076.61
2018-05-06T03:17:45.694Z,102074.86
2018-05-06T03:18:49.856Z,102075.78
2018-05-06T03:19:54.029Z,102078.32
2018-05-06T03:20:58.254Z,102075.77
2018-05-06T03:22:02.421Z,102081.37
2018-05-06T03:23:06.600Z,102075.78
2018-05-06T03:24:11.528Z,102079.23
2018-05-06T03:25:16.482Z,102080.91
2018-05-06T03:26:21.430Z,102078.34
2018-05-06T03:27:25.598Z,102081.80
2018-05-06T03:28:29.782Z,102085.28
2018-05-06T03:29:33.955Z,102082.25
2018-05-06T03:30:38.117Z,102087.41
2018-05-06T03:31:42.334Z,102086.56
2018-05-06T03:32:47.268Z,102086.97
2018-05-06T03:33:52.216Z,102089.99
2018-05-06T03:34:56.376Z,102089.14
2018-05-06T03:36:00.634Z,102088.69
2018-05-06T03:37:04.816Z,102092.09
2018-05-06T03:38:09.752Z,102090.81
2018-05-06T03:39:14.690Z,102086.12
2018-05-06T03:40:19.613Z,102089.59
2018-05-06T03:41:24.544Z,102091.71
2018-05-06T03:42:29.528Z,102096.47
2018-05-06T03:43:33.715Z,102089.61
2018-05-06T03:44:37.883Z,102089.60
2018-05-06T03:45:42.817Z,102090.03
2018-05-06T03:46:47.754Z,102087.03
2018-05-06T03:47:52.729Z,102091.28
2018-05-06T03:48:56.901Z,102083.58
2018-05-06T03:50:01.075Z,102084.02
2018-05-06T03:51:05.237Z,102082.34
2018-05-06T03:52:09.400Z,102078.49
2018-05-06T03:53:13.584Z,102078.06
2018-05-06T03:54:17.753Z,102075.13
2018-05-06T03:55:21.955Z,102074.75
2018-05-06T03:57:03.418Z,102080.33
2018-05-06T03:58:25.448Z,102074.81
2018-05-06T03:59:48.249Z,102080.39
2018-05-06T04:00:52.426Z,102078.73
2018-05-06T04:03:52.900Z,102080.02
2018-05-06T04:04:57.069Z,102082.59
2018-05-06T04:06:02.022Z,102080.03
2018-05-06T04:07:06.327Z,102079.19
2018-05-06T04:08:11.251Z,102077.47
2018-05-06T04:09:16.186Z,102085.17
2018-05-06T04:10:20.368Z,102091.63
2018-05-06T04:11:24.588Z,102089.06
2018-05-06T04:12:29.529Z,102085.60
2018-05-06T04:13:33.945Z,102094.97
2018-05-06T04:14:38.114Z,102084.27
2018-05-06T04:15:42.282Z,102089.90
2018-05-06T04:16:46.455Z,102092.47
2018-05-06T04:17:50.612Z,102084.27
2018-05-06T04:18:54.818Z,102085.14
2018-05-06T04:19:59.008Z,102091.58
2018-05-06T04:21:03.405Z,102083.86
2018-05-06T04:22:08.351Z,102078.22
2018-05-06T04:23:12.516Z,102086.73
2018-05-06T04:24:16.685Z,102085.36
2018-05-06T04:25:20.845Z,102085.28
2018-05-06T04:26:25.078Z,102086.02
2018-05-06T04:27:30.022Z,102084.20
2018-05-06T04:28:34.186Z,102088.79
2018-05-06T04:29:38.354Z,102091.26
2018-05-06T04:30:42.547Z,102090.75
2018-05-06T04:31:47.249Z,102097.47
2018-05-06T04:32:52.193Z,102096.53
2018-05-06T04:33:57.122Z,102102.48
2018-05-06T04:35:01.292Z,102101.55
2018-05-06T04:36:05.457Z,102107.04
2018-05-06T04:37:09.644Z,102104.37
2018-05-06T04:38:14.774Z,102106.84
2018-05-06T04:39:19.701Z,102109.77
2018-05-06T04:40:24.634Z,102104.59
2018-05-06T04:41:29.559Z,102104.13
2018-05-06T04:42:34.494Z,102102.47
2018-05-06T04:43:38.891Z,102104.23
2018-05-06T04:44:43.842Z,102103.45
2018-05-06T04:45:48.000Z,102100.07
2018-05-06T04:46:52.170Z,102104.06
2018-05-06T04:47:56.337Z,102106.69
2018-05-06T04:49:00.521Z,102110.14
2018-05-06T04:50:04.737Z,102110.66
2018-05-06T04:51:08.906Z,102113.70
2018-05-06T04:52:13.069Z,102123.97
2018-05-06T04:53:17.245Z,102113.34
2018-05-06T04:54:21.412Z,102118.95
2018-05-06T04:55:26.489Z,102117.30
2018-05-06T04:56:30.658Z,102119.52
2018-05-06T04:57:35.621Z,102125.04
2018-05-06T04:58:39.789Z,102122.56
2018-05-06T04:59:44.721Z,102127.26
2018-05-06T05:00:49.766Z,102128.59
2018-05-06T05:01:53.989Z,102133.28
2018-05-06T05:02:58.149Z,102128.95
2018-05-06T05:04:02.309Z,102137.05
2018-05-06T05:05:06.488Z,102133.64
2018-05-06T05:06:11.440Z,102133.66
2018-05-06T05:07:15.697Z,102131.89
2018-05-06T05:08:19.841Z,102134.47
2018-05-06T05:09:24.772Z,102132.36
2018-05-06T05:10:29.700Z,102135.33
2018-05-06T05:11:34.628Z,102140.91
2018-05-06T05:12:39.580Z,102136.61
2018-05-06T05:13:43.770Z,102134.03
2018-05-06T05:14:48.746Z,102139.16
2018-05-06T05:15:52.910Z,102133.09
2018-05-06T05:16:57.853Z,102135.17
2018-05-06T05:18:02.026Z,102139.84
2018-05-06T05:19:06.345Z,102135.09
2018-05-06T05:20:10.563Z,102139.78
2018-05-06T05:21:15.490Z,102149.67
2018-05-06T05:22:20.417Z,102147.50
2018-05-06T05:23:25.344Z,102144.84
2018-05-06T05:24:30.335Z,102150.07
2018-05-06T05:25:34.506Z,102144.86
2018-05-06T05:26:38.669Z,102149.91
2018-05-06T05:27:42.835Z,102150.33
2018-05-06T05:28:46.992Z,102151.97
2018-05-06T05:29:51.188Z,102143.76
2018-05-06T05:30:55.448Z,102151.87
2018-05-06T05:31:59.618Z,102148.79
2018-05-06T05:33:03.781Z,102153.92
2018-05-06T05:34:07.966Z,102152.56
2018-05-06T05:35:13.265Z,102149.59
2018-05-06T05:36:17.526Z,102147.37
2018-05-06T05:37:21.694Z,102146.38
2018-05-06T05:38:25.858Z,102151.37
2018-05-06T05:39:30.016Z,102152.20
2018-05-06T05:40:34.204Z,102146.63
2018-05-06T05:41:38.392Z,102145.23
2018-05-06T05:42:42.981Z,102148.98
2018-05-06T05:43:47.905Z,102148.45
2018-05-06T05:44:52.840Z,102156.25
2018-05-06T05:45:57.775Z,102153.20
2018-05-06T05:47:01.960Z,102150.12
2018-05-06T05:48:06.158Z,102155.22
2018-05-06T05:49:10.341Z,102157.23
2018-05-06T05:50:14.518Z,102152.40
2018-05-06T05:51:18.676Z,102157.45
2018-05-06T05:52:22.842Z,102161.37
2018-05-06T05:53:27.039Z,102156.16
2018-05-06T05:54:31.992Z,102162.53
2018-05-06T05:55:36.215Z,102165.43
2018-05-06T05:56:41.107Z,102172.19
2018-05-06T05:57:46.041Z,102168.19
2018-05-06T05:58:50.252Z,102174.49
2018-05-06T05:59:54.417Z,102173.94
2018-05-06T06:00:58.590Z,102172.95
2018-05-06T06:02:02.766Z,102174.59
2018-05-06T06:03:06.944Z,102174.98
2018-05-06T06:04:11.104Z,102178.77
2018-05-06T06:05:15.286Z,102174.28
2018-05-06T06:06:20.241Z,102179.84
2018-05-06T06:07:24.411Z,102187.09
2018-05-06T06:08:30.085Z,102185.70
2018-05-06T06:09:34.312Z,102187.32
2018-05-06T06:10:38.481Z,102188.94
2018-05-06T06:11:43.437Z,102189.64
2018-05-06T06:12:48.370Z,102194.65
2018-05-06T06:13:52.792Z,102194.17
2018-05-06T06:14:56.970Z,102192.80
2018-05-06T06:16:01.907Z,102192.20
2018-05-06T06:17:06.843Z,102190.73
2018-05-06T06:18:11.778Z,102185.86
2018-05-06T06:19:16.481Z,102189.22
2018-05-06T06:20:21.413Z,102182.67
2018-05-06T06:21:26.351Z,102182.16
2018-05-06T06:22:31.287Z,102191.03
2018-05-06T06:23:35.445Z,102184.49
2018-05-06T06:24:39.677Z,102185.72
2018-05-06T06:25:44.007Z,102189.09
2018-05-06T06:26:48.951Z,102196.84
2018-05-06T06:27:53.112Z,102197.25
2018-05-06T06:28:57.285Z,102196.39
2018-05-06T06:30:01.475Z,102196.27
2018-05-06T06:31:05.684Z,102194.46
2018-05-06T06:32:09.848Z,102203.08
2018-05-06T06:33:14.013Z,102199.08
2018-05-06T06:34:18.176Z,102198.48
2018-05-06T06:35:22.340Z,102200.95
2018-05-06T06:36:26.526Z,102208.17
2018-05-06T06:37:31.471Z,102196.88
2018-05-06T06:38:35.652Z,102207.98
2018-05-06T06:39:40.593Z,102207.94
2018-05-06T06:40:45.525Z,102202.64
2018-05-06T06:41:50.462Z,102203.75
2018-05-06T06:42:54.639Z,102197.49
2018-05-06T06:43:59.626Z,102196.41
2018-05-06T06:45:03.799Z,102197.13
2018-05-06T06:46:07.978Z,102198.67
2018-05-06T06:47:12.142Z,102195.52
2018-05-06T06:48:16.378Z,102197.67
2018-05-06T06:49:20.556Z,102196.25
2018-05-06T06:50:24.776Z,102190.99
2018-05-06T06:51:28.962Z,102195.64
2018-05-06T06:52:33.899Z,102197.33
2018-05-06T06:53:38.074Z,102193.67
2018-05-06T06:54:43.748Z,102200.56
2018-05-06T06:55:47.984Z,102201.03
2018-05-06T06:56:52.129Z,102195.70
2018-05-06T06:57:57.064Z,102198.08
2018-05-06T06:59:01.235Z,102193.39
2018-05-06T07:00:05.428Z,102198.05
2018-05-06T07:01:09.612Z,102197.48
2018-05-06T07:02:14.542Z,102197.80
2018-05-06T07:03:19.476Z,102203.41
2018-05-06T07:04:23.666Z,102193.81
2018-05-06T07:05:28.589Z,102200.69
2018-05-06T07:06:32.749Z,102199.57
2018-05-06T07:07:36.908Z,102192.23
2018-05-06T07:08:41.101Z,102201.27
2018-05-06T07:09:45.265Z,102195.21
2018-05-06T07:10:49.473Z,102196.41
2018-05-06T07:11:53.631Z,102192.41
2018-05-06T07:12:59.318Z,102190.47
2018-05-06T07:14:04.254Z,102192.22
2018-05-06T07:15:08.426Z,102193.45
2018-05-06T07:16:13.068Z,102185.56
2018-05-06T07:17:17.988Z,102184.58
2018-05-06T07:18:22.163Z,102186.48
2018-05-06T07:19:26.330Z,102186.32
2018-05-06T07:20:30.514Z,102185.27
2018-05-06T07:21:34.712Z,102182.56
2018-05-06T07:22:38.876Z,102185.93
2018-05-06T07:23:43.049Z,102179.69
2018-05-06T07:24:47.208Z,102180.56
2018-05-06T07:25:51.390Z,102181.72
2018-05-06T07:26:56.335Z,102182.84
2018-05-06T07:28:00.572Z,102181.80
2018-05-06T07:29:04.729Z,102184.62
2018-05-06T07:30:09.669Z,102180.26
2018-05-06T07:31:14.602Z,102180.97
2018-05-06T07:32:18.779Z,102180.41
2018-05-06T07:33:23.099Z,102176.86
2018-05-06T07:34:28.035Z,102180.05
2018-05-06T07:35:32.966Z,102184.32
2018-05-06T07:36:37.908Z,102178.86
2018-05-06T07:37:42.069Z,102180.03
2018-05-06T07:38:46.414Z,102172.94
2018-05-06T07:39:51.337Z,102173.59
2018-05-06T07:40:56.265Z,102165.41
2018-05-06T07:42:01.216Z,102167.75
2018-05-06T07:43:05.389Z,102169.68
2018-05-06T07:44:09.580Z,102168.60
2018-05-06T07:45:13.745Z,102166.64
2018-05-06T07:46:17.950Z,102166.06
2018-05-06T07:47:22.113Z,102161.11
2018-05-06T07:48:26.297Z,102165.82
2018-05-06T07:49:30.457Z,102161.83
2018-05-06T07:50:35.413Z,102163.37
2018-05-06T07:51:39.581Z,102157.45
2018-05-06T07:52:43.749Z,102161.63
2018-05-06T07:53:47.929Z,102162.30
2018-05-06T07:54:52.101Z,102167.12
2018-05-06T07:55:56.294Z,102165.50
2018-05-06T07:57:00.526Z,102168.23
2018-05-06T07:58:04.685Z,102171.56
2018-05-06T07:59:08.934Z,102168.81
2018-05-06T08:00:13.100Z,102172.58
2018-05-06T08:01:17.261Z,102179.30
2018-05-06T08:02:21.596Z,102167.02
2018-05-06T08:03:26.550Z,102169.31
2018-05-06T08:04:30.748Z,102168.85
2018-05-06T08:05:35.686Z,102171.65
2018-05-06T08:06:39.853Z,102165.86
2018-05-06T08:07:44.048Z,102175.61
2018-05-06T08:08:48.205Z,102175.53
2018-05-06T08:09:53.152Z,102169.41
2018-05-06T08:10:57.333Z,102168.59
2018-05-06T08:12:02.282Z,102170.62
2018-05-06T08:13:06.453Z,102168.98
2018-05-06T08:14:10.636Z,102161.61
2018-05-06T08:15:14.997Z,102166.59
2018-05-06T08:16:19.963Z,102166.11
2018-05-06T08:17:24.878Z,102168.95
2018-05-06T08:18:29.046Z,102176.57
2018-05-06T08:19:33.222Z,102172.50
2018-05-06T08:20:37.580Z,102176.73
2018-05-06T08:21:41.750Z,102173.55
2018-05-06T08:22:45.914Z,102169.41
2018-05-06T08:23:50.852Z,102177.48
2018-05-06T08:24:55.030Z,102168.20
2018-05-06T08:25:59.208Z,102170.78
2018-05-06T08:27:03.365Z,102165.37
2018-05-06T08:28:08.309Z,102167.31
2018-05-06T08:29:12.569Z,102160.81
2018-05-06T08:30:16.782Z,102160.38
2018-05-06T08:31:20.945Z,102159.98
2018-05-06T08:32:25.111Z,102151.62
2018-05-06T08:33:29.281Z,102159.34
2018-05-06T08:34:33.469Z,102162.52
2018-05-06T08:35:37.634Z,102150.11
2018-05-06T08:36:41.810Z,102157.00
2018-05-06T08:37:45.983Z,102158.30
2018-05-06T08:38:50.521Z,102160.73
2018-05-06T08:39:54.681Z,102158.79
2018-05-06T08:40:58.845Z,102152.88
2018-05-06T08:42:03.031Z,102151.98
2018-05-06T08:43:07.956Z,102147.16
2018-05-06T08:44:12.902Z,102145.45
2018-05-06T08:45:17.935Z,102147.19
2018-05-06T08:46:22.261Z,102147.12
2018-05-06T08:47:26.416Z,102155.56
2018-05-06T08:48:32.112Z,102149.66
2018-05-06T08:49:36.338Z,102148.45
2018-05-06T08:50:40.505Z,102146.97
2018-05-06T08:51:45.429Z,102147.38
2018-05-06T08:52:50.351Z,102148.64
2018-05-06T08:53:54.514Z,102151.44
2018-05-06T08:54:58.724Z,102153.83
2018-05-06T08:56:02.881Z,102152.81
2018-05-06T08:57:07.813Z,102158.14
2018-05-06T08:58:12.753Z,102159.08
2018-05-06T08:59:17.696Z,102158.80
2018-05-06T09:00:21.985Z,102158.11
2018-05-06T09:01:26.913Z,102159.32
2018-05-06T09:02:31.832Z,102153.81
2018-05-06T09:03:35.992Z,102157.55
2018-05-06T09:04:40.148Z,102148.94
2018-05-06T09:05:44.780Z,102149.03
2018-05-06T09:06:49.027Z,102155.98
2018-05-06T09:07:53.255Z,102147.90
2018-05-06T09:08:57.421Z,102153.22
2018-05-06T09:10:02.350Z,102154.04
2018-05-06T09:11:06.710Z,102156.72
2018-05-06T09:12:10.950Z,102157.07
2018-05-06T09:13:15.877Z,102160.05
2018-05-06T09:14:20.121Z,102156.70
2018-05-06T09:15:25.118Z,102163.60
2018-05-06T09:16:29.268Z,102156.31
2018-05-06T09:17:33.445Z,102159.36
2018-05-06T09:18:39.098Z,102164.28
2018-05-06T09:19:44.156Z,102154.22
2018-05-06T09:20:48.300Z,102154.84
2018-05-06T09:21:52.476Z,102153.58
2018-05-06T09:22:56.653Z,102150.93
2018-05-06T09:24:01.988Z,102148.83
2018-05-06T09:25:06.924Z,102149.53
2018-05-06T09:26:11.873Z,102152.84
2018-05-06T09:27:16.069Z,102138.39
2018-05-06T09:28:21.142Z,102140.00
2018-05-06T09:29:25.341Z,102146.36
2018-05-06T09:30:29.537Z,102135.24
2018-05-06T09:31:33.763Z,102145.81
2018-05-06T09:32:37.953Z,102143.30
2018-05-06T09:33:42.126Z,102134.49
2018-05-06T09:34:47.796Z,102136.70
2018-05-06T09:35:52.769Z,102140.18
2018-05-06T09:36:56.930Z,102134.89
2018-05-06T09:38:01.857Z,102131.20
2018-05-06T09:39:06.785Z,102128.84
2018-05-06T09:40:11.719Z,102129.57
2018-05-06T09:41:17.140Z,102123.23
2018-05-06T09:42:21.300Z,102122.30
2018-05-06T09:43:25.466Z,102121.14
2018-05-06T09:44:30.404Z,102120.33
2018-05-06T09:45:34.593Z,102118.37
2018-05-06T09:46:38.830Z,102114.94
2018-05-06T09:47:43.778Z,102122.30
2018-05-06T09:48:47.961Z,102122.89
2018-05-06T09:49:52.894Z,102124.30
2018-05-06T09:50:57.822Z,102119.66
2018-05-06T09:52:02.434Z,102116.36
2018-05-06T09:53:07.410Z,102113.67
2018-05-06T09:54:11.562Z,102116.33
2018-05-06T09:55:16.492Z,102114.04
2018-05-06T09:56:21.432Z,102118.58
2018-05-06T09:57:26.408Z,102111.20
2018-05-06T09:58:30.574Z,102117.12
2018-05-06T09:59:34.916Z,102115.02
2018-05-06T10:00:39.099Z,102114.94
2018-05-06T10:01:43.276Z,102106.89
2018-05-06T10:02:47.451Z,102115.19
2018-05-06T10:03:51.620Z,102108.47
2018-05-06T10:04:56.725Z,102105.13
2018-05-06T10:06:02.426Z,102103.55
2018-05-06T10:07:06.626Z,102101.81
2018-05-06T10:08:10.791Z,102101.88
2018-05-06T10:09:15.741Z,102104.14
2018-05-06T10:10:20.617Z,102104.35
2018-05-06T10:11:24.782Z,102108.20
2018-05-06T10:12:29.821Z,102109.15
2018-05-06T10:13:34.759Z,102107.57
2018-05-06T10:14:38.924Z,102111.70
2018-05-06T10:15:43.903Z,102112.69
2018-05-06T10:16:48.145Z,102113.50
2018-05-06T10:17:52.328Z,102117.44
2018-05-06T10:18:56.504Z,102113.88
2018-05-06T10:20:01.445Z,102110.64
2018-05-06T10:21:05.644Z,102106.00
2018-05-06T10:22:10.750Z,102113.22
2018-05-06T10:23:14.924Z,102111.87
2018-05-06T10:24:19.116Z,102110.80
2018-05-06T10:25:23.289Z,102103.80
2018-05-06T10:26:27.512Z,102111.30
2018-05-06T10:27:31.831Z,102106.02
2018-05-06T10:28:36.760Z,102105.95
2018-05-06T10:29:41.707Z,102107.50
2018-05-06T10:30:45.899Z,102103.64
2018-05-06T10:31:50.831Z,102097.25
2018-05-06T10:32:55.821Z,102104.25
2018-05-06T10:33:59.981Z,102104.48
2018-05-06T10:35:04.157Z,102094.92
2018-05-06T10:36:08.320Z,102092.67
2018-05-06T10:37:12.480Z,102100.63
2018-05-06T10:38:16.714Z,102094.91
2018-05-06T10:39:22.561Z,102103.81
2018-05-06T10:40:26.788Z,102092.86
2018-05-06T10:41:31.007Z,102095.67
2018-05-06T10:42:35.174Z,102096.03
2018-05-06T10:43:40.260Z,102097.51
2018-05-06T10:44:44.477Z,102097.05
2018-05-06T10:45:48.721Z,102095.35
2018-05-06T10:46:54.398Z,102101.12
2018-05-06T10:47:58.593Z,102102.09
2018-05-06T10:49:03.942Z,102096.11
2018-05-06T10:50:08.078Z,102092.92
2018-05-06T10:51:12.293Z,102099.44
2018-05-06T10:52:16.461Z,102097.20
2018-05-06T10:53:21.388Z,102092.17
2018-05-06T10:54:26.329Z,102090.08
2018-05-06T10:55:30.535Z,102099.06
2018-05-06T10:56:35.564Z,102094.78
2018-05-06T10:57:40.493Z,102092.64
2018-05-06T10:58:45.429Z,102084.20
2018-05-06T10:59:50.384Z,102085.41
2018-05-06T11:00:54.547Z,102086.38
2018-05-06T11:01:58.857Z,102080.81
2018-05-06T11:03:03.041Z,102082.42
2018-05-06T11:04:07.271Z,102075.31
2018-05-06T11:05:11.423Z,102077.23
2018-05-06T11:06:15.618Z,102076.35
2018-05-06T11:07:20.624Z,102079.61
2018-05-06T11:08:25.588Z,102077.11
2018-05-06T11:09:29.768Z,102078.19
2018-05-06T11:10:33.925Z,102070.31
2018-05-06T11:11:38.123Z,102071.80
2018-05-06T11:12:42.746Z,102079.34
2018-05-06T11:13:46.941Z,102076.03
2018-05-06T11:14:51.117Z,102073.02
2018-05-06T11:15:55.285Z,102074.63
2018-05-06T11:16:59.466Z,102071.02
2018-05-06T11:18:04.435Z,102073.11
2018-05-06T11:19:08.780Z,102067.17
2018-05-06T11:20:12.949Z,102070.27
2018-05-06T11:21:17.129Z,102069.95
2018-05-06T11:22:22.083Z,102070.20
2018-05-06T11:23:26.343Z,102066.70
2018-05-06T11:24:30.504Z,102065.44
2018-05-06T11:25:34.685Z,102066.59
2018-05-06T11:26:39.628Z,102065.52
2018-05-06T11:27:43.795Z,102061.20
2018-05-06T11:28:48.356Z,102063.70
2018-05-06T11:29:52.549Z,102060.34
2018-05-06T11:30:57.479Z,102053.69
2018-05-06T11:32:02.412Z,102058.22
2018-05-06T11:33:06.572Z,102065.73
2018-05-06T11:34:10.912Z,102061.16
2018-05-06T11:35:15.112Z,102057.89
2018-05-06T11:36:19.362Z,102060.36
2018-05-06T11:37:23.477Z,102058.58
2018-05-06T11:38:27.632Z,102057.86
2018-05-06T11:39:31.805Z,102062.89
2018-05-06T11:40:35.978Z,102067.79
2018-05-06T11:41:41.145Z,102059.58
2018-05-06T11:42:45.317Z,102057.77
2018-05-06T11:43:49.477Z,102060.02
2018-05-06T11:44:53.632Z,102059.39
2018-05-06T11:45:57.804Z,102060.56
2018-05-06T11:47:01.995Z,102059.42
2018-05-06T11:48:06.231Z,102054.28
2018-05-06T11:49:10.501Z,102054.88
2018-05-06T11:50:15.430Z,102052.75
2018-05-06T11:51:19.643Z,102054.09
2018-05-06T11:52:23.804Z,102060.52
2018-05-06T11:53:28.775Z,102049.27
2018-05-06T11:54:33.701Z,102057.27
2018-05-06T11:55:38.629Z,102057.30
2018-05-06T11:56:43.577Z,102062.50
2018-05-06T11:57:47.742Z,102056.42
2018-05-06T11:58:52.722Z,102054.21
2018-05-06T11:59:56.887Z,102044.76
2018-05-06T12:01:01.059Z,102052.59
2018-05-06T12:02:05.348Z,102044.56
2018-05-06T12:03:09.890Z,102032.73
2018-05-06T12:04:14.055Z,102046.16
2018-05-06T12:05:18.983Z,102041.72
2018-05-06T12:06:24.024Z,102037.03
2018-05-06T12:07:28.186Z,102041.58
2018-05-06T12:08:33.901Z,102043.86
2018-05-06T12:09:38.060Z,102045.73
2018-05-06T12:10:42.217Z,102041.97
2018-05-06T12:11:46.385Z,102043.07
2018-05-06T12:12:51.330Z,102035.14
2018-05-06T12:13:55.550Z,102026.28
2018-05-06T12:14:59.712Z,102032.16
2018-05-06T12:16:03.911Z,102022.54
2018-05-06T12:17:08.077Z,102020.11
2018-05-06T12:18:12.245Z,102019.38
2018-05-06T12:19:16.474Z,102022.16
2018-05-06T12:20:21.401Z,102028.17